sensor_id;sensor_type;location;lat;lon;timestamp;P1;durP1;ratioP1;P2;durP2;ratioP2
1503;SDS011;743;47.076;15.494;2023-03-01T00:01:29;44.55;;;20.20;;
1503;SDS011;743;47.076;15.494;2023-03-01T00:03:59;50.30;;;20.35;;
1503;SDS011;743;47.076;15.494;2023-03-01T00:06:27;36.47;;;16.25;;
1503;SDS011;743;47.076;15.494;2023-03-01T00:08:54;38.47;;;16.90;;
1503;SDS011;743;47.076;15.494;2023-03-01T00:11:22;33.17;;;15.00;;
1503;SDS011;743;47.076;15.494;2023-03-01T00:13:54;43.50;;;17.70;;
1503;SDS011;743;47.076;15.494;2023-03-01T00:16:23;36.50;;;15.52;;
1503;SDS011;743;47.076;15.494;2023-03-01T00:18:51;39.33;;;15.80;;
1503;SDS011;743;47.076;15.494;2023-03-01T00:21:19;38.70;;;14.23;;
1503;SDS011;743;47.076;15.494;2023-03-01T00:23:47;44.17;;;18.85;;
1503;SDS011;743;47.076;15.494;2023-03-01T00:26:15;39.65;;;15.93;;
1503;SDS011;743;47.076;15.494;2023-03-01T00:28:44;43.42;;;18.80;;
1503;SDS011;743;47.076;15.494;2023-03-01T00:31:13;41.67;;;18.02;;
1503;SDS011;743;47.076;15.494;2023-03-01T00:33:43;40.00;;;16.73;;
1503;SDS011;743;47.076;15.494;2023-03-01T00:36:12;44.65;;;16.88;;
1503;SDS011;743;47.076;15.494;2023-03-01T00:38:41;36.70;;;16.75;;
1503;SDS011;743;47.076;15.494;2023-03-01T00:43:38;21.27;;;9.97;;
1503;SDS011;743;47.076;15.494;2023-03-01T00:46:07;43.85;;;17.02;;
1503;SDS011;743;47.076;15.494;2023-03-01T00:48:37;45.03;;;21.75;;
1503;SDS011;743;47.076;15.494;2023-03-01T00:51:05;41.20;;;17.90;;
1503;SDS011;743;47.076;15.494;2023-03-01T00:53:33;36.67;;;13.52;;
1503;SDS011;743;47.076;15.494;2023-03-01T00:56:02;27.95;;;12.40;;
1503;SDS011;743;47.076;15.494;2023-03-01T00:58:32;39.63;;;17.42;;
1503;SDS011;743;47.076;15.494;2023-03-01T01:01:00;34.53;;;15.27;;
1503;SDS011;743;47.076;15.494;2023-03-01T01:03:44;37.03;;;16.27;;
1503;SDS011;743;47.076;15.494;2023-03-01T01:06:14;47.75;;;18.80;;
1503;SDS011;743;47.076;15.494;2023-03-01T01:08:42;31.27;;;15.88;;
1503;SDS011;743;47.076;15.494;2023-03-01T01:11:11;38.20;;;16.60;;
1503;SDS011;743;47.076;15.494;2023-03-01T01:13:39;38.90;;;16.70;;
1503;SDS011;743;47.076;15.494;2023-03-01T01:16:08;35.45;;;15.55;;
1503;SDS011;743;47.076;15.494;2023-03-01T01:18:35;36.08;;;15.30;;
1503;SDS011;743;47.076;15.494;2023-03-01T01:21:08;34.13;;;14.93;;
1503;SDS011;743;47.076;15.494;2023-03-01T01:23:37;37.13;;;17.63;;
1503;SDS011;743;47.076;15.494;2023-03-01T01:26:06;40.13;;;17.33;;
1503;SDS011;743;47.076;15.494;2023-03-01T01:28:35;90.78;;;34.88;;
1503;SDS011;743;47.076;15.494;2023-03-01T01:31:03;40.85;;;16.58;;
1503;SDS011;743;47.076;15.494;2023-03-01T01:33:31;39.47;;;16.30;;
1503;SDS011;743;47.076;15.494;2023-03-01T01:35:59;47.67;;;19.48;;
1503;SDS011;743;47.076;15.494;2023-03-01T01:38:28;47.60;;;20.38;;
1503;SDS011;743;47.076;15.494;2023-03-01T01:40:57;36.78;;;14.52;;
1503;SDS011;743;47.076;15.494;2023-03-01T01:43:26;32.05;;;14.63;;
1503;SDS011;743;47.076;15.494;2023-03-01T01:45:55;46.40;;;18.00;;
1503;SDS011;743;47.076;15.494;2023-03-01T01:48:24;31.02;;;12.15;;
1503;SDS011;743;47.076;15.494;2023-03-01T01:51:07;40.33;;;16.90;;
1503;SDS011;743;47.076;15.494;2023-03-01T01:53:39;44.20;;;18.50;;
1503;SDS011;743;47.076;15.494;2023-03-01T01:56:09;44.00;;;18.50;;
1503;SDS011;743;47.076;15.494;2023-03-01T01:58:41;39.58;;;17.05;;
1503;SDS011;743;47.076;15.494;2023-03-01T02:01:11;47.25;;;21.13;;
1503;SDS011;743;47.076;15.494;2023-03-01T02:03:39;39.90;;;15.57;;
1503;SDS011;743;47.076;15.494;2023-03-01T02:06:12;46.13;;;18.67;;
1503;SDS011;743;47.076;15.494;2023-03-01T02:08:48;37.95;;;15.50;;
1503;SDS011;743;47.076;15.494;2023-03-01T02:11:18;34.65;;;15.32;;
1503;SDS011;743;47.076;15.494;2023-03-01T02:13:47;45.03;;;19.98;;
1503;SDS011;743;47.076;15.494;2023-03-01T02:16:15;32.55;;;13.70;;
1503;SDS011;743;47.076;15.494;2023-03-01T02:18:44;43.90;;;16.77;;
1503;SDS011;743;47.076;15.494;2023-03-01T02:21:15;38.30;;;16.05;;
1503;SDS011;743;47.076;15.494;2023-03-01T02:23:54;39.33;;;17.98;;
1503;SDS011;743;47.076;15.494;2023-03-01T02:26:25;41.25;;;17.75;;
1503;SDS011;743;47.076;15.494;2023-03-01T02:29:03;44.55;;;18.02;;
1503;SDS011;743;47.076;15.494;2023-03-01T02:31:32;31.38;;;14.80;;
1503;SDS011;743;47.076;15.494;2023-03-01T02:34:08;37.00;;;16.67;;
1503;SDS011;743;47.076;15.494;2023-03-01T02:36:39;41.88;;;17.67;;
1503;SDS011;743;47.076;15.494;2023-03-01T02:39:11;39.75;;;17.60;;
1503;SDS011;743;47.076;15.494;2023-03-01T02:41:44;40.22;;;16.77;;
1503;SDS011;743;47.076;15.494;2023-03-01T02:44:18;31.25;;;14.55;;
1503;SDS011;743;47.076;15.494;2023-03-01T02:46:47;39.42;;;17.20;;
1503;SDS011;743;47.076;15.494;2023-03-01T02:49:18;31.17;;;14.02;;
1503;SDS011;743;47.076;15.494;2023-03-01T02:51:54;44.25;;;17.15;;
1503;SDS011;743;47.076;15.494;2023-03-01T02:54:39;33.35;;;16.38;;
1503;SDS011;743;47.076;15.494;2023-03-01T02:57:13;33.88;;;14.63;;
1503;SDS011;743;47.076;15.494;2023-03-01T02:59:43;42.28;;;17.45;;
1503;SDS011;743;47.076;15.494;2023-03-01T03:02:18;26.95;;;11.32;;
1503;SDS011;743;47.076;15.494;2023-03-01T03:05:01;36.65;;;15.10;;
1503;SDS011;743;47.076;15.494;2023-03-01T03:07:32;49.63;;;21.35;;
1503;SDS011;743;47.076;15.494;2023-03-01T03:09:59;36.45;;;15.32;;
1503;SDS011;743;47.076;15.494;2023-03-01T03:12:27;51.25;;;19.90;;
1503;SDS011;743;47.076;15.494;2023-03-01T03:14:56;39.42;;;17.10;;
1503;SDS011;743;47.076;15.494;2023-03-01T03:17:23;41.03;;;18.90;;
1503;SDS011;743;47.076;15.494;2023-03-01T03:19:51;48.17;;;20.80;;
1503;SDS011;743;47.076;15.494;2023-03-01T03:22:18;32.55;;;16.15;;
1503;SDS011;743;47.076;15.494;2023-03-01T03:24:46;46.80;;;22.90;;
1503;SDS011;743;47.076;15.494;2023-03-01T03:27:13;37.40;;;17.23;;
1503;SDS011;743;47.076;15.494;2023-03-01T03:29:40;36.17;;;15.73;;
1503;SDS011;743;47.076;15.494;2023-03-01T03:32:10;34.35;;;15.65;;
1503;SDS011;743;47.076;15.494;2023-03-01T03:34:37;41.83;;;18.90;;
1503;SDS011;743;47.076;15.494;2023-03-01T03:37:06;30.67;;;14.67;;
1503;SDS011;743;47.076;15.494;2023-03-01T03:39:53;44.17;;;18.50;;
1503;SDS011;743;47.076;15.494;2023-03-01T03:42:20;34.60;;;15.82;;
1503;SDS011;743;47.076;15.494;2023-03-01T03:44:51;46.30;;;19.90;;
1503;SDS011;743;47.076;15.494;2023-03-01T03:47:19;44.05;;;19.88;;
1503;SDS011;743;47.076;15.494;2023-03-01T03:49:48;65.95;;;25.38;;
1503;SDS011;743;47.076;15.494;2023-03-01T03:52:17;41.17;;;18.55;;
1503;SDS011;743;47.076;15.494;2023-03-01T03:54:45;36.00;;;17.17;;
1503;SDS011;743;47.076;15.494;2023-03-01T03:57:12;36.50;;;17.60;;
1503;SDS011;743;47.076;15.494;2023-03-01T03:59:41;37.22;;;15.82;;
1503;SDS011;743;47.076;15.494;2023-03-01T04:02:08;23.25;;;10.68;;
1503;SDS011;743;47.076;15.494;2023-03-01T04:04:37;39.63;;;16.33;;
1503;SDS011;743;47.076;15.494;2023-03-01T04:07:04;44.33;;;18.17;;
1503;SDS011;743;47.076;15.494;2023-03-01T04:09:31;33.15;;;14.38;;
1503;SDS011;743;47.076;15.494;2023-03-01T04:12:00;36.72;;;15.13;;
1503;SDS011;743;47.076;15.494;2023-03-01T04:14:27;38.67;;;18.75;;
1503;SDS011;743;47.076;15.494;2023-03-01T04:16:55;39.45;;;18.38;;
1503;SDS011;743;47.076;15.494;2023-03-01T04:19:23;33.13;;;15.15;;
1503;SDS011;743;47.076;15.494;2023-03-01T04:21:53;42.87;;;20.27;;
1503;SDS011;743;47.076;15.494;2023-03-01T04:24:22;32.30;;;14.15;;
1503;SDS011;743;47.076;15.494;2023-03-01T04:26:49;34.58;;;17.63;;
1503;SDS011;743;47.076;15.494;2023-03-01T04:29:17;32.38;;;13.80;;
1503;SDS011;743;47.076;15.494;2023-03-01T04:31:44;39.83;;;17.88;;
1503;SDS011;743;47.076;15.494;2023-03-01T04:34:12;32.35;;;13.75;;
1503;SDS011;743;47.076;15.494;2023-03-01T04:36:40;33.75;;;14.90;;
1503;SDS011;743;47.076;15.494;2023-03-01T04:39:09;36.00;;;16.17;;
1503;SDS011;743;47.076;15.494;2023-03-01T04:41:38;35.85;;;16.67;;
1503;SDS011;743;47.076;15.494;2023-03-01T04:44:09;35.22;;;16.42;;
1503;SDS011;743;47.076;15.494;2023-03-01T04:46:37;21.40;;;9.33;;
1503;SDS011;743;47.076;15.494;2023-03-01T04:49:05;33.42;;;15.07;;
1503;SDS011;743;47.076;15.494;2023-03-01T04:51:32;37.30;;;15.48;;
1503;SDS011;743;47.076;15.494;2023-03-01T04:54:00;37.33;;;17.63;;
1503;SDS011;743;47.076;15.494;2023-03-01T04:56:29;40.05;;;16.27;;
1503;SDS011;743;47.076;15.494;2023-03-01T04:58:57;35.75;;;15.43;;
1503;SDS011;743;47.076;15.494;2023-03-01T05:01:26;28.88;;;12.38;;
1503;SDS011;743;47.076;15.494;2023-03-01T05:03:54;40.67;;;16.50;;
1503;SDS011;743;47.076;15.494;2023-03-01T05:06:21;36.33;;;13.38;;
1503;SDS011;743;47.076;15.494;2023-03-01T05:08:48;39.17;;;16.33;;
1503;SDS011;743;47.076;15.494;2023-03-01T05:11:17;26.20;;;12.00;;
1503;SDS011;743;47.076;15.494;2023-03-01T05:13:47;39.35;;;16.23;;
1503;SDS011;743;47.076;15.494;2023-03-01T05:16:15;47.88;;;17.60;;
1503;SDS011;743;47.076;15.494;2023-03-01T05:18:45;39.92;;;17.98;;
1503;SDS011;743;47.076;15.494;2023-03-01T05:21:12;40.88;;;17.08;;
1503;SDS011;743;47.076;15.494;2023-03-01T05:23:41;40.42;;;17.58;;
1503;SDS011;743;47.076;15.494;2023-03-01T05:26:09;30.42;;;14.27;;
1503;SDS011;743;47.076;15.494;2023-03-01T05:28:37;39.40;;;17.35;;
1503;SDS011;743;47.076;15.494;2023-03-01T05:31:06;28.83;;;12.85;;
1503;SDS011;743;47.076;15.494;2023-03-01T05:33:35;40.10;;;17.90;;
1503;SDS011;743;47.076;15.494;2023-03-01T05:36:04;34.38;;;16.80;;
1503;SDS011;743;47.076;15.494;2023-03-01T05:38:32;45.22;;;20.25;;
1503;SDS011;743;47.076;15.494;2023-03-01T05:40:59;31.80;;;15.07;;
1503;SDS011;743;47.076;15.494;2023-03-01T05:43:29;36.70;;;16.60;;
1503;SDS011;743;47.076;15.494;2023-03-01T05:45:59;45.90;;;19.50;;
1503;SDS011;743;47.076;15.494;2023-03-01T05:48:29;35.38;;;16.42;;
1503;SDS011;743;47.076;15.494;2023-03-01T05:50:57;59.35;;;22.58;;
1503;SDS011;743;47.076;15.494;2023-03-01T05:53:27;41.65;;;19.25;;
1503;SDS011;743;47.076;15.494;2023-03-01T05:55:54;44.22;;;17.77;;
1503;SDS011;743;47.076;15.494;2023-03-01T05:58:22;35.83;;;15.50;;
1503;SDS011;743;47.076;15.494;2023-03-01T06:00:49;55.33;;;22.83;;
1503;SDS011;743;47.076;15.494;2023-03-01T06:03:17;38.30;;;16.92;;
1503;SDS011;743;47.076;15.494;2023-03-01T06:05:55;47.38;;;20.58;;
1503;SDS011;743;47.076;15.494;2023-03-01T06:08:22;42.15;;;18.08;;
1503;SDS011;743;47.076;15.494;2023-03-01T06:10:52;45.72;;;18.60;;
1503;SDS011;743;47.076;15.494;2023-03-01T06:13:21;39.00;;;19.20;;
1503;SDS011;743;47.076;15.494;2023-03-01T06:15:49;43.58;;;18.90;;
1503;SDS011;743;47.076;15.494;2023-03-01T06:18:18;34.42;;;15.25;;
1503;SDS011;743;47.076;15.494;2023-03-01T06:20:51;40.35;;;18.00;;
1503;SDS011;743;47.076;15.494;2023-03-01T06:23:21;45.28;;;20.38;;
1503;SDS011;743;47.076;15.494;2023-03-01T06:25:50;46.15;;;21.15;;
1503;SDS011;743;47.076;15.494;2023-03-01T06:28:18;40.25;;;15.57;;
1503;SDS011;743;47.076;15.494;2023-03-01T06:30:47;49.03;;;24.25;;
1503;SDS011;743;47.076;15.494;2023-03-01T06:33:14;44.42;;;22.45;;
1503;SDS011;743;47.076;15.494;2023-03-01T06:35:44;43.80;;;21.75;;
1503;SDS011;743;47.076;15.494;2023-03-01T06:38:13;41.23;;;18.27;;
1503;SDS011;743;47.076;15.494;2023-03-01T06:40:42;48.53;;;21.40;;
1503;SDS011;743;47.076;15.494;2023-03-01T06:43:10;40.05;;;19.33;;
1503;SDS011;743;47.076;15.494;2023-03-01T06:45:38;51.17;;;22.92;;
1503;SDS011;743;47.076;15.494;2023-03-01T06:48:06;56.38;;;24.85;;
1503;SDS011;743;47.076;15.494;2023-03-01T06:50:33;47.80;;;21.63;;
1503;SDS011;743;47.076;15.494;2023-03-01T06:53:01;48.22;;;21.20;;
1503;SDS011;743;47.076;15.494;2023-03-01T06:55:30;47.60;;;21.27;;
1503;SDS011;743;47.076;15.494;2023-03-01T06:58:00;57.30;;;24.10;;
1503;SDS011;743;47.076;15.494;2023-03-01T07:00:28;47.13;;;20.48;;
1503;SDS011;743;47.076;15.494;2023-03-01T07:02:58;40.10;;;18.75;;
1503;SDS011;743;47.076;15.494;2023-03-01T07:05:28;46.75;;;21.40;;
1503;SDS011;743;47.076;15.494;2023-03-01T07:07:56;52.95;;;22.92;;
1503;SDS011;743;47.076;15.494;2023-03-01T07:10:23;47.03;;;21.48;;
1503;SDS011;743;47.076;15.494;2023-03-01T07:12:55;46.92;;;21.30;;
1503;SDS011;743;47.076;15.494;2023-03-01T07:15:27;45.20;;;20.02;;
1503;SDS011;743;47.076;15.494;2023-03-01T07:17:55;42.00;;;19.35;;
1503;SDS011;743;47.076;15.494;2023-03-01T07:20:23;59.92;;;25.00;;
1503;SDS011;743;47.076;15.494;2023-03-01T07:22:51;48.72;;;21.73;;
1503;SDS011;743;47.076;15.494;2023-03-01T07:25:20;34.97;;;15.00;;
1503;SDS011;743;47.076;15.494;2023-03-01T07:27:48;58.05;;;35.38;;
1503;SDS011;743;47.076;15.494;2023-03-01T07:30:19;43.72;;;20.85;;
1503;SDS011;743;47.076;15.494;2023-03-01T07:35:18;41.50;;;20.67;;
1503;SDS011;743;47.076;15.494;2023-03-01T07:37:45;40.00;;;18.70;;
1503;SDS011;743;47.076;15.494;2023-03-01T07:40:13;43.58;;;18.70;;
1503;SDS011;743;47.076;15.494;2023-03-01T07:42:42;47.10;;;20.05;;
1503;SDS011;743;47.076;15.494;2023-03-01T07:45:09;42.08;;;18.25;;
1503;SDS011;743;47.076;15.494;2023-03-01T07:47:40;52.13;;;21.73;;
1503;SDS011;743;47.076;15.494;2023-03-01T07:50:09;40.42;;;18.85;;
1503;SDS011;743;47.076;15.494;2023-03-01T07:52:38;51.03;;;22.00;;
1503;SDS011;743;47.076;15.494;2023-03-01T07:55:06;40.90;;;18.85;;
1503;SDS011;743;47.076;15.494;2023-03-01T07:57:34;45.50;;;20.77;;
1503;SDS011;743;47.076;15.494;2023-03-01T08:00:01;50.60;;;20.83;;
1503;SDS011;743;47.076;15.494;2023-03-01T08:02:28;48.70;;;20.95;;
1503;SDS011;743;47.076;15.494;2023-03-01T08:04:57;45.08;;;19.42;;
1503;SDS011;743;47.076;15.494;2023-03-01T08:07:26;43.22;;;19.73;;
1503;SDS011;743;47.076;15.494;2023-03-01T08:09:53;59.43;;;27.40;;
1503;SDS011;743;47.076;15.494;2023-03-01T08:12:21;52.28;;;23.70;;
1503;SDS011;743;47.076;15.494;2023-03-01T08:14:50;45.90;;;20.30;;
1503;SDS011;743;47.076;15.494;2023-03-01T08:17:17;37.65;;;17.45;;
1503;SDS011;743;47.076;15.494;2023-03-01T08:19:44;48.42;;;23.08;;
1503;SDS011;743;47.076;15.494;2023-03-01T08:22:13;52.97;;;23.45;;
1503;SDS011;743;47.076;15.494;2023-03-01T08:24:41;48.33;;;21.02;;
1503;SDS011;743;47.076;15.494;2023-03-01T08:27:08;39.88;;;19.77;;
1503;SDS011;743;47.076;15.494;2023-03-01T08:29:36;52.33;;;23.02;;
1503;SDS011;743;47.076;15.494;2023-03-01T08:32:04;60.10;;;26.90;;
1503;SDS011;743;47.076;15.494;2023-03-01T08:34:32;49.53;;;22.63;;
1503;SDS011;743;47.076;15.494;2023-03-01T08:37:00;58.75;;;24.48;;
1503;SDS011;743;47.076;15.494;2023-03-01T08:39:30;41.75;;;20.33;;
1503;SDS011;743;47.076;15.494;2023-03-01T08:41:57;45.33;;;20.48;;
1503;SDS011;743;47.076;15.494;2023-03-01T08:44:24;53.70;;;24.23;;
1503;SDS011;743;47.076;15.494;2023-03-01T08:46:52;48.47;;;21.23;;
1503;SDS011;743;47.076;15.494;2023-03-01T08:49:21;37.58;;;16.45;;
1503;SDS011;743;47.076;15.494;2023-03-01T08:51:49;47.30;;;20.50;;
1503;SDS011;743;47.076;15.494;2023-03-01T08:54:17;45.75;;;21.17;;
1503;SDS011;743;47.076;15.494;2023-03-01T08:56:50;54.55;;;22.33;;
1503;SDS011;743;47.076;15.494;2023-03-01T08:59:17;54.72;;;24.85;;
1503;SDS011;743;47.076;15.494;2023-03-01T09:01:45;47.30;;;20.77;;
1503;SDS011;743;47.076;15.494;2023-03-01T09:04:14;52.90;;;23.90;;
1503;SDS011;743;47.076;15.494;2023-03-01T09:06:46;53.00;;;20.38;;
1503;SDS011;743;47.076;15.494;2023-03-01T09:09:15;51.53;;;22.23;;
1503;SDS011;743;47.076;15.494;2023-03-01T09:11:43;44.20;;;20.38;;
1503;SDS011;743;47.076;15.494;2023-03-01T09:14:13;45.08;;;19.38;;
1503;SDS011;743;47.076;15.494;2023-03-01T09:16:41;49.67;;;22.55;;
1503;SDS011;743;47.076;15.494;2023-03-01T09:19:09;45.95;;;18.85;;
1503;SDS011;743;47.076;15.494;2023-03-01T09:21:38;44.22;;;18.73;;
1503;SDS011;743;47.076;15.494;2023-03-01T09:24:06;44.60;;;20.23;;
1503;SDS011;743;47.076;15.494;2023-03-01T09:26:38;55.45;;;22.42;;
1503;SDS011;743;47.076;15.494;2023-03-01T09:29:06;54.58;;;19.65;;
1503;SDS011;743;47.076;15.494;2023-03-01T09:34:21;57.10;;;23.77;;
1503;SDS011;743;47.076;15.494;2023-03-01T09:36:52;58.22;;;26.00;;
1503;SDS011;743;47.076;15.494;2023-03-01T09:39:28;56.50;;;24.88;;
1503;SDS011;743;47.076;15.494;2023-03-01T09:41:59;55.08;;;24.20;;
1503;SDS011;743;47.076;15.494;2023-03-01T09:44:31;55.05;;;25.73;;
1503;SDS011;743;47.076;15.494;2023-03-01T09:47:08;64.95;;;26.73;;
1503;SDS011;743;47.076;15.494;2023-03-01T09:49:39;52.65;;;24.30;;
1503;SDS011;743;47.076;15.494;2023-03-01T09:52:17;53.83;;;22.80;;
1503;SDS011;743;47.076;15.494;2023-03-01T09:54:52;54.95;;;25.25;;
1503;SDS011;743;47.076;15.494;2023-03-01T09:57:25;43.40;;;15.05;;
1503;SDS011;743;47.076;15.494;2023-03-01T10:00:08;54.50;;;26.67;;
1503;SDS011;743;47.076;15.494;2023-03-01T10:02:55;65.78;;;26.92;;
1503;SDS011;743;47.076;15.494;2023-03-01T10:05:38;46.83;;;20.85;;
1503;SDS011;743;47.076;15.494;2023-03-01T10:08:24;51.33;;;22.08;;
1503;SDS011;743;47.076;15.494;2023-03-01T10:11:05;56.00;;;22.45;;
1503;SDS011;743;47.076;15.494;2023-03-01T10:13:46;58.15;;;25.90;;
1503;SDS011;743;47.076;15.494;2023-03-01T10:16:24;53.40;;;19.60;;
1503;SDS011;743;47.076;15.494;2023-03-01T10:18:58;55.03;;;24.40;;
1503;SDS011;743;47.076;15.494;2023-03-01T10:21:28;40.28;;;18.95;;
1503;SDS011;743;47.076;15.494;2023-03-01T10:23:59;57.60;;;22.30;;
1503;SDS011;743;47.076;15.494;2023-03-01T10:26:40;64.45;;;26.08;;
1503;SDS011;743;47.076;15.494;2023-03-01T10:29:44;59.80;;;25.02;;
1503;SDS011;743;47.076;15.494;2023-03-01T10:32:19;48.30;;;22.55;;
1503;SDS011;743;47.076;15.494;2023-03-01T10:34:50;54.25;;;21.48;;
1503;SDS011;743;47.076;15.494;2023-03-01T10:37:19;48.80;;;22.30;;
1503;SDS011;743;47.076;15.494;2023-03-01T10:39:56;44.63;;;18.83;;
1503;SDS011;743;47.076;15.494;2023-03-01T10:42:35;47.50;;;20.52;;
1503;SDS011;743;47.076;15.494;2023-03-01T10:45:15;56.80;;;23.95;;
1503;SDS011;743;47.076;15.494;2023-03-01T10:48:06;52.92;;;22.85;;
1503;SDS011;743;47.076;15.494;2023-03-01T10:50:46;47.60;;;20.15;;
1503;SDS011;743;47.076;15.494;2023-03-01T10:53:22;44.65;;;19.00;;
1503;SDS011;743;47.076;15.494;2023-03-01T10:56:04;50.10;;;19.65;;
1503;SDS011;743;47.076;15.494;2023-03-01T10:58:38;58.90;;;25.40;;
1503;SDS011;743;47.076;15.494;2023-03-01T11:01:29;64.15;;;25.73;;
1503;SDS011;743;47.076;15.494;2023-03-01T11:04:10;57.13;;;23.67;;
1503;SDS011;743;47.076;15.494;2023-03-01T11:06:57;47.17;;;20.80;;
1503;SDS011;743;47.076;15.494;2023-03-01T11:09:31;60.38;;;26.55;;
1503;SDS011;743;47.076;15.494;2023-03-01T11:12:04;70.82;;;27.58;;
1503;SDS011;743;47.076;15.494;2023-03-01T11:14:46;48.75;;;21.25;;
1503;SDS011;743;47.076;15.494;2023-03-01T11:17:17;49.55;;;21.92;;
1503;SDS011;743;47.076;15.494;2023-03-01T11:20:02;54.83;;;25.15;;
1503;SDS011;743;47.076;15.494;2023-03-01T11:22:45;57.92;;;24.88;;
1503;SDS011;743;47.076;15.494;2023-03-01T11:25:24;53.60;;;22.63;;
1503;SDS011;743;47.076;15.494;2023-03-01T11:27:53;62.85;;;25.85;;
1503;SDS011;743;47.076;15.494;2023-03-01T11:30:23;60.67;;;23.85;;
1503;SDS011;743;47.076;15.494;2023-03-01T11:32:58;53.53;;;23.05;;
1503;SDS011;743;47.076;15.494;2023-03-01T11:35:50;58.65;;;26.13;;
1503;SDS011;743;47.076;15.494;2023-03-01T11:38:35;63.50;;;26.35;;
1503;SDS011;743;47.076;15.494;2023-03-01T11:41:07;63.95;;;24.67;;
1503;SDS011;743;47.076;15.494;2023-03-01T11:43:44;65.65;;;28.13;;
1503;SDS011;743;47.076;15.494;2023-03-01T11:49:40;56.00;;;24.38;;
1503;SDS011;743;47.076;15.494;2023-03-01T11:52:30;52.97;;;23.45;;
1503;SDS011;743;47.076;15.494;2023-03-01T11:55:15;76.45;;;30.83;;
1503;SDS011;743;47.076;15.494;2023-03-01T11:57:58;52.40;;;22.70;;
1503;SDS011;743;47.076;15.494;2023-03-01T12:01:01;67.50;;;29.02;;
1503;SDS011;743;47.076;15.494;2023-03-01T12:03:46;62.90;;;26.88;;
1503;SDS011;743;47.076;15.494;2023-03-01T12:06:36;52.90;;;25.17;;
1503;SDS011;743;47.076;15.494;2023-03-01T12:09:17;63.70;;;29.63;;
1503;SDS011;743;47.076;15.494;2023-03-01T12:12:15;63.17;;;30.48;;
1503;SDS011;743;47.076;15.494;2023-03-01T12:15:09;57.70;;;24.98;;
1503;SDS011;743;47.076;15.494;2023-03-01T12:21:14;60.00;;;26.60;;
1503;SDS011;743;47.076;15.494;2023-03-01T12:23:57;62.58;;;27.67;;
1503;SDS011;743;47.076;15.494;2023-03-01T12:30:15;62.50;;;27.65;;
1503;SDS011;743;47.076;15.494;2023-03-01T12:32:59;58.40;;;24.88;;
1503;SDS011;743;47.076;15.494;2023-03-01T12:35:43;54.17;;;25.35;;
1503;SDS011;743;47.076;15.494;2023-03-01T12:38:39;46.30;;;21.80;;
1503;SDS011;743;47.076;15.494;2023-03-01T12:41:27;50.00;;;21.60;;
1503;SDS011;743;47.076;15.494;2023-03-01T12:44:12;43.55;;;19.33;;
1503;SDS011;743;47.076;15.494;2023-03-01T12:47:07;56.50;;;24.85;;
1503;SDS011;743;47.076;15.494;2023-03-01T12:52:13;54.55;;;23.60;;
1503;SDS011;743;47.076;15.494;2023-03-01T12:54:47;51.40;;;21.55;;
1503;SDS011;743;47.076;15.494;2023-03-01T12:57:20;44.53;;;19.27;;
1503;SDS011;743;47.076;15.494;2023-03-01T12:59:59;68.50;;;28.17;;
1503;SDS011;743;47.076;15.494;2023-03-01T13:02:39;53.67;;;23.00;;
1503;SDS011;743;47.076;15.494;2023-03-01T13:05:23;50.15;;;23.48;;
1503;SDS011;743;47.076;15.494;2023-03-01T13:07:58;47.67;;;21.33;;
1503;SDS011;743;47.076;15.494;2023-03-01T13:10:33;55.97;;;23.33;;
1503;SDS011;743;47.076;15.494;2023-03-01T13:13:18;50.90;;;21.02;;
1503;SDS011;743;47.076;15.494;2023-03-01T13:15:46;57.38;;;24.02;;
1503;SDS011;743;47.076;15.494;2023-03-01T13:18:30;53.70;;;22.67;;
1503;SDS011;743;47.076;15.494;2023-03-01T13:21:00;68.97;;;28.02;;
1503;SDS011;743;47.076;15.494;2023-03-01T13:23:34;44.17;;;20.90;;
1503;SDS011;743;47.076;15.494;2023-03-01T13:26:06;66.57;;;26.20;;
1503;SDS011;743;47.076;15.494;2023-03-01T13:34:42;61.03;;;23.83;;
1503;SDS011;743;47.076;15.494;2023-03-01T13:37:18;59.50;;;24.95;;
1503;SDS011;743;47.076;15.494;2023-03-01T13:39:55;54.65;;;23.92;;
1503;SDS011;743;47.076;15.494;2023-03-01T13:42:31;54.83;;;22.73;;
1503;SDS011;743;47.076;15.494;2023-03-01T13:45:15;67.78;;;27.40;;
1503;SDS011;743;47.076;15.494;2023-03-01T13:47:49;53.85;;;20.77;;
1503;SDS011;743;47.076;15.494;2023-03-01T13:50:25;54.53;;;21.98;;
1503;SDS011;743;47.076;15.494;2023-03-01T13:52:56;50.95;;;21.27;;
1503;SDS011;743;47.076;15.494;2023-03-01T13:55:27;54.78;;;23.65;;
1503;SDS011;743;47.076;15.494;2023-03-01T13:58:02;65.00;;;24.15;;
1503;SDS011;743;47.076;15.494;2023-03-01T14:00:41;57.63;;;23.75;;
1503;SDS011;743;47.076;15.494;2023-03-01T14:03:11;64.25;;;27.30;;
1503;SDS011;743;47.076;15.494;2023-03-01T14:05:56;50.95;;;21.35;;
1503;SDS011;743;47.076;15.494;2023-03-01T14:08:29;61.13;;;25.23;;
1503;SDS011;743;47.076;15.494;2023-03-01T14:14:08;59.03;;;22.58;;
1503;SDS011;743;47.076;15.494;2023-03-01T14:20:14;50.53;;;20.27;;
1503;SDS011;743;47.076;15.494;2023-03-01T14:22:48;53.83;;;23.95;;
1503;SDS011;743;47.076;15.494;2023-03-01T14:25:24;42.63;;;17.83;;
1503;SDS011;743;47.076;15.494;2023-03-01T14:27:59;52.45;;;23.27;;
1503;SDS011;743;47.076;15.494;2023-03-01T14:30:31;58.70;;;25.73;;
1503;SDS011;743;47.076;15.494;2023-03-01T14:33:04;46.00;;;19.60;;
1503;SDS011;743;47.076;15.494;2023-03-01T14:35:51;54.35;;;23.00;;
1503;SDS011;743;47.076;15.494;2023-03-01T14:38:23;63.75;;;21.55;;
1503;SDS011;743;47.076;15.494;2023-03-01T14:41:01;51.53;;;25.45;;
1503;SDS011;743;47.076;15.494;2023-03-01T14:43:31;54.75;;;28.08;;
1503;SDS011;743;47.076;15.494;2023-03-01T14:46:00;52.97;;;26.00;;
1503;SDS011;743;47.076;15.494;2023-03-01T14:48:29;44.83;;;22.10;;
1503;SDS011;743;47.076;15.494;2023-03-01T14:50:57;51.40;;;23.17;;
1503;SDS011;743;47.076;15.494;2023-03-01T14:53:28;44.15;;;19.92;;
1503;SDS011;743;47.076;15.494;2023-03-01T14:55:59;46.72;;;21.38;;
1503;SDS011;743;47.076;15.494;2023-03-01T14:58:28;54.28;;;23.13;;
1503;SDS011;743;47.076;15.494;2023-03-01T15:01:03;48.78;;;21.83;;
1503;SDS011;743;47.076;15.494;2023-03-01T15:03:33;46.13;;;21.40;;
1503;SDS011;743;47.076;15.494;2023-03-01T15:06:10;50.63;;;22.35;;
1503;SDS011;743;47.076;15.494;2023-03-01T15:08:42;41.63;;;19.45;;
1503;SDS011;743;47.076;15.494;2023-03-01T15:11:17;103.70;;;47.17;;
1503;SDS011;743;47.076;15.494;2023-03-01T15:13:53;93.38;;;41.20;;
1503;SDS011;743;47.076;15.494;2023-03-01T15:16:24;55.78;;;28.35;;
1503;SDS011;743;47.076;15.494;2023-03-01T15:18:54;100.40;;;45.30;;
1503;SDS011;743;47.076;15.494;2023-03-01T15:21:24;99.10;;;62.67;;
1503;SDS011;743;47.076;15.494;2023-03-01T15:23:57;306.40;;;164.68;;
1503;SDS011;743;47.076;15.494;2023-03-01T15:26:29;49.35;;;30.90;;
1503;SDS011;743;47.076;15.494;2023-03-01T15:28:59;51.60;;;27.88;;
1503;SDS011;743;47.076;15.494;2023-03-01T15:31:28;38.35;;;21.23;;
1503;SDS011;743;47.076;15.494;2023-03-01T15:34:10;39.40;;;22.25;;
1503;SDS011;743;47.076;15.494;2023-03-01T15:36:47;60.13;;;37.38;;
1503;SDS011;743;47.076;15.494;2023-03-01T15:45:10;332.73;;;190.95;;
1503;SDS011;743;47.076;15.494;2023-03-01T15:47:47;332.50;;;192.50;;
1503;SDS011;743;47.076;15.494;2023-03-01T15:50:18;322.58;;;184.77;;
1503;SDS011;743;47.076;15.494;2023-03-01T15:52:47;328.40;;;187.02;;
1503;SDS011;743;47.076;15.494;2023-03-01T15:55:18;316.80;;;178.63;;
1503;SDS011;743;47.076;15.494;2023-03-01T15:57:49;211.95;;;145.00;;